sensor_id;sensor_type;location;lat;lon;timestamp;P1;durP1;ratioP1;P2;durP2;ratioP2
26034;SDS011;13809;48.632;11.576;2023-08-06T00:04:21;1.70;;;1.60;;
26034;SDS011;13809;48.632;11.576;2023-08-06T00:09:24;1.63;;;1.53;;
26034;SDS011;13809;48.632;11.576;2023-08-06T00:14:29;1.70;;;1.60;;
26034;SDS011;13809;48.632;11.576;2023-08-06T00:19:32;1.80;;;1.70;;
26034;SDS011;13809;48.632;11.576;2023-08-06T00:24:35;1.57;;;1.47;;
26034;SDS011;13809;48.632;11.576;2023-08-06T00:29:40;1.50;;;1.40;;
26034;SDS011;13809;48.632;11.576;2023-08-06T00:34:43;1.60;;;1.37;;
26034;SDS011;13809;48.632;11.576;2023-08-06T00:39:46;1.60;;;1.50;;
26034;SDS011;13809;48.632;11.576;2023-08-06T00:44:50;1.50;;;1.40;;
26034;SDS011;13809;48.632;11.576;2023-08-06T00:49:54;1.70;;;1.50;;
26034;SDS011;13809;48.632;11.576;2023-08-06T00:54:57;1.60;;;1.50;;
26034;SDS011;13809;48.632;11.576;2023-08-06T01:00:02;1.20;;;1.20;;
26034;SDS011;13809;48.632;11.576;2023-08-06T01:05:06;1.33;;;1.30;;
26034;SDS011;13809;48.632;11.576;2023-08-06T01:10:20;1.73;;;1.30;;
26034;SDS011;13809;48.632;11.576;2023-08-06T01:15:32;1.60;;;1.50;;
26034;SDS011;13809;48.632;11.576;2023-08-06T01:20:41;2.90;;;1.73;;
26034;SDS011;13809;48.632;11.576;2023-08-06T01:25:46;1.97;;;1.87;;
26034;SDS011;13809;48.632;11.576;2023-08-06T01:30:56;2.00;;;1.90;;
26034;SDS011;13809;48.632;11.576;2023-08-06T01:36:05;1.90;;;1.80;;
26034;SDS011;13809;48.632;11.576;2023-08-06T01:41:09;1.90;;;1.80;;
26034;SDS011;13809;48.632;11.576;2023-08-06T01:46:12;1.90;;;1.80;;
26034;SDS011;13809;48.632;11.576;2023-08-06T01:51:16;2.17;;;1.93;;
26034;SDS011;13809;48.632;11.576;2023-08-06T01:56:20;2.17;;;2.03;;
26034;SDS011;13809;48.632;11.576;2023-08-06T02:01:23;2.10;;;2.00;;
26034;SDS011;13809;48.632;11.576;2023-08-06T02:06:27;2.50;;;2.30;;
26034;SDS011;13809;48.632;11.576;2023-08-06T02:11:31;2.17;;;1.97;;
26034;SDS011;13809;48.632;11.576;2023-08-06T02:16:34;2.20;;;2.10;;
26034;SDS011;13809;48.632;11.576;2023-08-06T02:21:39;2.00;;;1.90;;
26034;SDS011;13809;48.632;11.576;2023-08-06T02:26:42;2.50;;;2.30;;
26034;SDS011;13809;48.632;11.576;2023-08-06T02:31:45;2.07;;;1.97;;
26034;SDS011;13809;48.632;11.576;2023-08-06T02:36:50;2.53;;;2.43;;
26034;SDS011;13809;48.632;11.576;2023-08-06T02:41:53;3.00;;;2.50;;
26034;SDS011;13809;48.632;11.576;2023-08-06T02:46:56;2.63;;;2.43;;
26034;SDS011;13809;48.632;11.576;2023-08-06T02:52:01;2.87;;;2.67;;
26034;SDS011;13809;48.632;11.576;2023-08-06T02:57:05;3.47;;;2.97;;
26034;SDS011;13809;48.632;11.576;2023-08-06T03:02:08;3.50;;;3.20;;
26034;SDS011;13809;48.632;11.576;2023-08-06T03:07:13;3.40;;;3.20;;
26034;SDS011;13809;48.632;11.576;2023-08-06T03:12:16;3.33;;;3.03;;
26034;SDS011;13809;48.632;11.576;2023-08-06T03:17:19;3.30;;;3.10;;
26034;SDS011;13809;48.632;11.576;2023-08-06T03:22:23;3.63;;;3.37;;
26034;SDS011;13809;48.632;11.576;2023-08-06T03:27:27;3.60;;;3.40;;
26034;SDS011;13809;48.632;11.576;2023-08-06T03:32:30;3.60;;;3.30;;
26034;SDS011;13809;48.632;11.576;2023-08-06T03:37:34;3.23;;;3.00;;
26034;SDS011;13809;48.632;11.576;2023-08-06T03:42:37;3.33;;;3.13;;
26034;SDS011;13809;48.632;11.576;2023-08-06T03:47:41;2.87;;;2.67;;
26034;SDS011;13809;48.632;11.576;2023-08-06T03:52:45;3.10;;;2.90;;
26034;SDS011;13809;48.632;11.576;2023-08-06T03:57:48;3.33;;;3.10;;
26034;SDS011;13809;48.632;11.576;2023-08-06T04:02:51;2.87;;;2.67;;
26034;SDS011;13809;48.632;11.576;2023-08-06T04:07:56;2.80;;;2.60;;
26034;SDS011;13809;48.632;11.576;2023-08-06T04:12:59;3.10;;;2.90;;
26034;SDS011;13809;48.632;11.576;2023-08-06T04:18:02;3.50;;;3.20;;
26034;SDS011;13809;48.632;11.576;2023-08-06T04:23:07;3.13;;;2.93;;
26034;SDS011;13809;48.632;11.576;2023-08-06T04:28:10;2.80;;;2.60;;
26034;SDS011;13809;48.632;11.576;2023-08-06T04:33:13;3.20;;;3.00;;
26034;SDS011;13809;48.632;11.576;2023-08-06T04:38:18;2.70;;;2.50;;
26034;SDS011;13809;48.632;11.576;2023-08-06T04:43:21;2.83;;;2.50;;
26034;SDS011;13809;48.632;11.576;2023-08-06T04:48:24;3.17;;;2.90;;
26034;SDS011;13809;48.632;11.576;2023-08-06T04:53:29;3.20;;;3.00;;
26034;SDS011;13809;48.632;11.576;2023-08-06T04:58:32;3.10;;;2.90;;
26034;SDS011;13809;48.632;11.576;2023-08-06T05:03:36;3.20;;;2.57;;
26034;SDS011;13809;48.632;11.576;2023-08-06T05:08:41;2.90;;;2.70;;
26034;SDS011;13809;48.632;11.576;2023-08-06T05:13:44;2.80;;;2.60;;
26034;SDS011;13809;48.632;11.576;2023-08-06T05:18:47;2.60;;;2.50;;
26034;SDS011;13809;48.632;11.576;2023-08-06T05:23:52;2.93;;;2.73;;
26034;SDS011;13809;48.632;11.576;2023-08-06T05:28:55;2.90;;;2.70;;
26034;SDS011;13809;48.632;11.576;2023-08-06T05:33:58;3.00;;;2.80;;
26034;SDS011;13809;48.632;11.576;2023-08-06T05:39:04;3.03;;;2.77;;
26034;SDS011;13809;48.632;11.576;2023-08-06T05:44:07;2.80;;;2.40;;
26034;SDS011;13809;48.632;11.576;2023-08-06T05:49:10;2.60;;;2.33;;
26034;SDS011;13809;48.632;11.576;2023-08-06T05:54:16;2.40;;;2.20;;
26034;SDS011;13809;48.632;11.576;2023-08-06T05:59:19;2.03;;;1.83;;
26034;SDS011;13809;48.632;11.576;2023-08-06T06:04:22;2.40;;;2.30;;
26034;SDS011;13809;48.632;11.576;2023-08-06T06:09:27;1.87;;;1.77;;
26034;SDS011;13809;48.632;11.576;2023-08-06T06:14:30;2.63;;;1.90;;
26034;SDS011;13809;48.632;11.576;2023-08-06T06:19:33;2.40;;;1.80;;
26034;SDS011;13809;48.632;11.576;2023-08-06T06:24:38;1.90;;;1.80;;
26034;SDS011;13809;48.632;11.576;2023-08-06T06:29:41;1.73;;;1.63;;
26034;SDS011;13809;48.632;11.576;2023-08-06T06:34:44;2.00;;;1.90;;
26034;SDS011;13809;48.632;11.576;2023-08-06T06:39:49;2.03;;;1.93;;
26034;SDS011;13809;48.632;11.576;2023-08-06T06:44:52;2.00;;;1.70;;
26034;SDS011;13809;48.632;11.576;2023-08-06T06:49:55;1.80;;;1.70;;
26034;SDS011;13809;48.632;11.576;2023-08-06T06:54:59;2.57;;;2.07;;
26034;SDS011;13809;48.632;11.576;2023-08-06T07:00:03;1.87;;;1.77;;
26034;SDS011;13809;48.632;11.576;2023-08-06T07:05:07;1.93;;;1.83;;
26034;SDS011;13809;48.632;11.576;2023-08-06T07:10:12;2.40;;;2.20;;
26034;SDS011;13809;48.632;11.576;2023-08-06T07:15:15;2.87;;;1.70;;
26034;SDS011;13809;48.632;11.576;2023-08-06T07:20:19;1.63;;;1.53;;
26034;SDS011;13809;48.632;11.576;2023-08-06T07:25:23;1.70;;;1.60;;
26034;SDS011;13809;48.632;11.576;2023-08-06T07:30:27;2.03;;;1.93;;
26034;SDS011;13809;48.632;11.576;2023-08-06T07:35:30;1.77;;;1.67;;
26034;SDS011;13809;48.632;11.576;2023-08-06T07:40:36;1.60;;;1.50;;
26034;SDS011;13809;48.632;11.576;2023-08-06T07:45:39;1.67;;;1.57;;
26034;SDS011;13809;48.632;11.576;2023-08-06T07:50:42;1.40;;;1.40;;
26034;SDS011;13809;48.632;11.576;2023-08-06T07:55:53;1.53;;;1.43;;
26034;SDS011;13809;48.632;11.576;2023-08-06T08:00:56;1.37;;;1.30;;
26034;SDS011;13809;48.632;11.576;2023-08-06T08:06:02;1.60;;;1.50;;
26034;SDS011;13809;48.632;11.576;2023-08-06T08:11:07;1.67;;;1.57;;
26034;SDS011;13809;48.632;11.576;2023-08-06T08:16:10;1.47;;;1.30;;
26034;SDS011;13809;48.632;11.576;2023-08-06T08:21:15;2.37;;;1.40;;
26034;SDS011;13809;48.632;11.576;2023-08-06T08:26:20;2.37;;;1.10;;
26034;SDS011;13809;48.632;11.576;2023-08-06T08:31:24;0.80;;;0.80;;
26034;SDS011;13809;48.632;11.576;2023-08-06T08:36:27;1.07;;;1.07;;
26034;SDS011;13809;48.632;11.576;2023-08-06T08:41:33;0.80;;;0.80;;
26034;SDS011;13809;48.632;11.576;2023-08-06T08:46:40;1.33;;;1.00;;
26034;SDS011;13809;48.632;11.576;2023-08-06T08:51:43;1.20;;;1.10;;
26034;SDS011;13809;48.632;11.576;2023-08-06T08:56:49;1.33;;;1.17;;
26034;SDS011;13809;48.632;11.576;2023-08-06T09:01:52;1.10;;;0.90;;
26034;SDS011;13809;48.632;11.576;2023-08-06T09:06:57;1.00;;;1.00;;
26034;SDS011;13809;48.632;11.576;2023-08-06T09:12:15;1.10;;;1.10;;
26034;SDS011;13809;48.632;11.576;2023-08-06T09:17:19;0.80;;;0.80;;
26034;SDS011;13809;48.632;11.576;2023-08-06T09:22:22;1.07;;;1.00;;
26034;SDS011;13809;48.632;11.576;2023-08-06T09:27:27;1.57;;;0.90;;
26034;SDS011;13809;48.632;11.576;2023-08-06T09:32:43;1.70;;;1.10;;
26034;SDS011;13809;48.632;11.576;2023-08-06T09:37:48;1.87;;;0.77;;
26034;SDS011;13809;48.632;11.576;2023-08-06T09:42:52;0.97;;;0.80;;
26034;SDS011;13809;48.632;11.576;2023-08-06T09:47:56;0.50;;;0.50;;
26034;SDS011;13809;48.632;11.576;2023-08-06T09:53:00;1.37;;;0.70;;
26034;SDS011;13809;48.632;11.576;2023-08-06T09:58:05;0.77;;;0.70;;
26034;SDS011;13809;48.632;11.576;2023-08-06T10:03:09;1.23;;;0.80;;
26034;SDS011;13809;48.632;11.576;2023-08-06T10:08:15;0.70;;;0.70;;
26034;SDS011;13809;48.632;11.576;2023-08-06T10:13:20;1.10;;;0.80;;
26034;SDS011;13809;48.632;11.576;2023-08-06T10:18:24;0.70;;;0.70;;
26034;SDS011;13809;48.632;11.576;2023-08-06T10:23:34;0.67;;;0.67;;
26034;SDS011;13809;48.632;11.576;2023-08-06T10:28:41;0.40;;;0.40;;
26034;SDS011;13809;48.632;11.576;2023-08-06T10:33:44;0.40;;;0.40;;
26034;SDS011;13809;48.632;11.576;2023-08-06T10:38:49;1.07;;;0.60;;
26034;SDS011;13809;48.632;11.576;2023-08-06T10:43:54;0.50;;;0.50;;
26034;SDS011;13809;48.632;11.576;2023-08-06T10:49:09;1.50;;;0.57;;
26034;SDS011;13809;48.632;11.576;2023-08-06T10:54:15;0.93;;;0.60;;
26034;SDS011;13809;48.632;11.576;2023-08-06T10:59:20;0.80;;;0.70;;
26034;SDS011;13809;48.632;11.576;2023-08-06T11:04:23;1.03;;;0.47;;
26034;SDS011;13809;48.632;11.576;2023-08-06T11:09:27;0.97;;;0.60;;
26034;SDS011;13809;48.632;11.576;2023-08-06T11:14:32;0.60;;;0.50;;
26034;SDS011;13809;48.632;11.576;2023-08-06T11:19:35;0.40;;;0.40;;
26034;SDS011;13809;48.632;11.576;2023-08-06T11:24:38;0.73;;;0.50;;
26034;SDS011;13809;48.632;11.576;2023-08-06T11:29:43;0.53;;;0.53;;
26034;SDS011;13809;48.632;11.576;2023-08-06T11:34:46;0.40;;;0.40;;
26034;SDS011;13809;48.632;11.576;2023-08-06T11:39:49;0.40;;;0.40;;
26034;SDS011;13809;48.632;11.576;2023-08-06T11:44:56;0.57;;;0.57;;
26034;SDS011;13809;48.632;11.576;2023-08-06T11:49:59;0.80;;;0.60;;
26034;SDS011;13809;48.632;11.576;2023-08-06T11:55:03;0.50;;;0.50;;
26034;SDS011;13809;48.632;11.576;2023-08-06T12:00:10;0.47;;;0.47;;
26034;SDS011;13809;48.632;11.576;2023-08-06T12:05:14;0.50;;;0.50;;
26034;SDS011;13809;48.632;11.576;2023-08-06T12:10:18;0.30;;;0.30;;
26034;SDS011;13809;48.632;11.576;2023-08-06T12:15:24;0.40;;;0.40;;
26034;SDS011;13809;48.632;11.576;2023-08-06T12:20:27;0.50;;;0.50;;
26034;SDS011;13809;48.632;11.576;2023-08-06T12:25:30;0.50;;;0.50;;
26034;SDS011;13809;48.632;11.576;2023-08-06T12:30:35;0.50;;;0.50;;
26034;SDS011;13809;48.632;11.576;2023-08-06T12:35:39;0.40;;;0.40;;
26034;SDS011;13809;48.632;11.576;2023-08-06T12:40:42;0.50;;;0.50;;
26034;SDS011;13809;48.632;11.576;2023-08-06T12:45:46;0.30;;;0.30;;
26034;SDS011;13809;48.632;11.576;2023-08-06T12:50:50;0.37;;;0.37;;
26034;SDS011;13809;48.632;11.576;2023-08-06T12:55:53;0.50;;;0.40;;
26034;SDS011;13809;48.632;11.576;2023-08-06T13:00:58;0.40;;;0.40;;
26034;SDS011;13809;48.632;11.576;2023-08-06T13:06:01;0.77;;;0.57;;
26034;SDS011;13809;48.632;11.576;2023-08-06T13:11:04;0.47;;;0.47;;
26034;SDS011;13809;48.632;11.576;2023-08-06T13:16:09;0.37;;;0.37;;
26034;SDS011;13809;48.632;11.576;2023-08-06T13:21:12;0.40;;;0.40;;
26034;SDS011;13809;48.632;11.576;2023-08-06T13:26:15;0.40;;;0.40;;
26034;SDS011;13809;48.632;11.576;2023-08-06T13:31:19;0.50;;;0.50;;
26034;SDS011;13809;48.632;11.576;2023-08-06T13:36:23;0.40;;;0.40;;
26034;SDS011;13809;48.632;11.576;2023-08-06T13:41:27;0.63;;;0.47;;
26034;SDS011;13809;48.632;11.576;2023-08-06T13:46:32;0.40;;;0.40;;
26034;SDS011;13809;48.632;11.576;2023-08-06T13:51:35;0.40;;;0.40;;
26034;SDS011;13809;48.632;11.576;2023-08-06T13:56:39;1.00;;;0.50;;
26034;SDS011;13809;48.632;11.576;2023-08-06T14:01:44;1.03;;;0.50;;
26034;SDS011;13809;48.632;11.576;2023-08-06T14:06:53;0.67;;;0.40;;
26034;SDS011;13809;48.632;11.576;2023-08-06T14:11:56;0.57;;;0.57;;
26034;SDS011;13809;48.632;11.576;2023-08-06T14:17:01;0.83;;;0.47;;
26034;SDS011;13809;48.632;11.576;2023-08-06T14:22:05;1.17;;;0.60;;
26034;SDS011;13809;48.632;11.576;2023-08-06T14:27:08;0.43;;;0.43;;
26034;SDS011;13809;48.632;11.576;2023-08-06T14:32:13;0.63;;;0.50;;
26034;SDS011;13809;48.632;11.576;2023-08-06T14:37:19;0.70;;;0.70;;
26034;SDS011;13809;48.632;11.576;2023-08-06T14:42:22;0.60;;;0.60;;
26034;SDS011;13809;48.632;11.576;2023-08-06T14:47:27;0.63;;;0.63;;
26034;SDS011;13809;48.632;11.576;2023-08-06T14:52:30;1.07;;;0.60;;
26034;SDS011;13809;48.632;11.576;2023-08-06T14:57:33;0.60;;;0.60;;
26034;SDS011;13809;48.632;11.576;2023-08-06T15:02:37;0.80;;;0.80;;
26034;SDS011;13809;48.632;11.576;2023-08-06T15:07:41;0.70;;;0.70;;
26034;SDS011;13809;48.632;11.576;2023-08-06T15:12:44;0.70;;;0.70;;
26034;SDS011;13809;48.632;11.576;2023-08-06T15:17:48;1.10;;;1.00;;
26034;SDS011;13809;48.632;11.576;2023-08-06T15:22:51;0.70;;;0.70;;
26034;SDS011;13809;48.632;11.576;2023-08-06T15:27:56;0.73;;;0.73;;
26034;SDS011;13809;48.632;11.576;2023-08-06T15:33:01;0.83;;;0.83;;
26034;SDS011;13809;48.632;11.576;2023-08-06T15:38:05;0.60;;;0.60;;
26034;SDS011;13809;48.632;11.576;2023-08-06T15:43:08;0.83;;;0.60;;
26034;SDS011;13809;48.632;11.576;2023-08-06T15:48:12;0.83;;;0.70;;
26034;SDS011;13809;48.632;11.576;2023-08-06T15:53:16;0.80;;;0.80;;
26034;SDS011;13809;48.632;11.576;2023-08-06T15:58:19;0.80;;;0.80;;
26034;SDS011;13809;48.632;11.576;2023-08-06T16:03:23;0.80;;;0.80;;
26034;SDS011;13809;48.632;11.576;2023-08-06T16:08:27;1.20;;;1.10;;
26034;SDS011;13809;48.632;11.576;2023-08-06T16:13:30;1.00;;;0.70;;
26034;SDS011;13809;48.632;11.576;2023-08-06T16:18:35;0.70;;;0.70;;
26034;SDS011;13809;48.632;11.576;2023-08-06T16:23:38;0.87;;;0.87;;
26034;SDS011;13809;48.632;11.576;2023-08-06T16:28:41;1.07;;;1.00;;
26034;SDS011;13809;48.632;11.576;2023-08-06T16:33:46;0.83;;;0.83;;
26034;SDS011;13809;48.632;11.576;2023-08-06T16:38:49;0.90;;;0.90;;
26034;SDS011;13809;48.632;11.576;2023-08-06T16:43:52;0.70;;;0.70;;
26034;SDS011;13809;48.632;11.576;2023-08-06T16:48:57;0.53;;;0.53;;
26034;SDS011;13809;48.632;11.576;2023-08-06T16:54:00;0.70;;;0.70;;
26034;SDS011;13809;48.632;11.576;2023-08-06T16:59:04;0.80;;;0.80;;
26034;SDS011;13809;48.632;11.576;2023-08-06T17:04:08;0.77;;;0.77;;
26034;SDS011;13809;48.632;11.576;2023-08-06T17:09:12;0.70;;;0.70;;
26034;SDS011;13809;48.632;11.576;2023-08-06T17:14:16;0.70;;;0.70;;
26034;SDS011;13809;48.632;11.576;2023-08-06T17:19:20;0.70;;;0.70;;
26034;SDS011;13809;48.632;11.576;2023-08-06T17:24:23;0.80;;;0.80;;
26034;SDS011;13809;48.632;11.576;2023-08-06T17:29:26;0.83;;;0.70;;
26034;SDS011;13809;48.632;11.576;2023-08-06T17:34:31;0.60;;;0.60;;
26034;SDS011;13809;48.632;11.576;2023-08-06T17:39:34;0.57;;;0.57;;
26034;SDS011;13809;48.632;11.576;2023-08-06T17:44:37;0.70;;;0.70;;
26034;SDS011;13809;48.632;11.576;2023-08-06T17:49:42;0.60;;;0.50;;
26034;SDS011;13809;48.632;11.576;2023-08-06T17:54:46;0.70;;;0.70;;
26034;SDS011;13809;48.632;11.576;2023-08-06T17:59:49;0.70;;;0.70;;
26034;SDS011;13809;48.632;11.576;2023-08-06T18:04:54;0.73;;;0.70;;
26034;SDS011;13809;48.632;11.576;2023-08-06T18:09:57;0.50;;;0.50;;
26034;SDS011;13809;48.632;11.576;2023-08-06T18:15:00;0.73;;;0.73;;
26034;SDS011;13809;48.632;11.576;2023-08-06T18:20:05;0.80;;;0.80;;
26034;SDS011;13809;48.632;11.576;2023-08-06T18:25:10;0.80;;;0.80;;
26034;SDS011;13809;48.632;11.576;2023-08-06T18:30:13;0.70;;;0.70;;
26034;SDS011;13809;48.632;11.576;2023-08-06T18:35:17;0.90;;;0.90;;
26034;SDS011;13809;48.632;11.576;2023-08-06T18:40:21;0.70;;;0.70;;
26034;SDS011;13809;48.632;11.576;2023-08-06T18:45:24;0.80;;;0.80;;
26034;SDS011;13809;48.632;11.576;2023-08-06T18:50:28;0.60;;;0.60;;
26034;SDS011;13809;48.632;11.576;2023-08-06T18:55:36;1.33;;;0.80;;
26034;SDS011;13809;48.632;11.576;2023-08-06T19:00:47;1.17;;;1.10;;
26034;SDS011;13809;48.632;11.576;2023-08-06T19:05:51;0.70;;;0.70;;
26034;SDS011;13809;48.632;11.576;2023-08-06T19:11:00;0.67;;;0.67;;
26034;SDS011;13809;48.632;11.576;2023-08-06T19:16:03;0.90;;;0.90;;
26034;SDS011;13809;48.632;11.576;2023-08-06T19:21:07;0.80;;;0.80;;
26034;SDS011;13809;48.632;11.576;2023-08-06T19:26:10;0.80;;;0.80;;
26034;SDS011;13809;48.632;11.576;2023-08-06T19:31:14;0.77;;;0.77;;
26034;SDS011;13809;48.632;11.576;2023-08-06T19:36:18;0.77;;;0.77;;
26034;SDS011;13809;48.632;11.576;2023-08-06T19:41:21;0.90;;;0.80;;
26034;SDS011;13809;48.632;11.576;2023-08-06T19:46:25;0.90;;;0.70;;
26034;SDS011;13809;48.632;11.576;2023-08-06T19:51:29;0.70;;;0.70;;
26034;SDS011;13809;48.632;11.576;2023-08-06T19:56:32;2.37;;;0.80;;
26034;SDS011;13809;48.632;11.576;2023-08-06T20:01:36;1.60;;;0.90;;
26034;SDS011;13809;48.632;11.576;2023-08-06T20:06:41;0.70;;;0.70;;
26034;SDS011;13809;48.632;11.576;2023-08-06T20:11:44;0.80;;;0.80;;
26034;SDS011;13809;48.632;11.576;2023-08-06T20:16:47;0.90;;;0.90;;
26034;SDS011;13809;48.632;11.576;2023-08-06T20:21:52;0.80;;;0.80;;
26034;SDS011;13809;48.632;11.576;2023-08-06T20:26:55;0.70;;;0.70;;
26034;SDS011;13809;48.632;11.576;2023-08-06T20:31:59;0.73;;;0.73;;
26034;SDS011;13809;48.632;11.576;2023-08-06T20:37:04;1.03;;;1.00;;
26034;SDS011;13809;48.632;11.576;2023-08-06T20:42:07;0.80;;;0.80;;
26034;SDS011;13809;48.632;11.576;2023-08-06T20:47:10;0.90;;;0.90;;
26034;SDS011;13809;48.632;11.576;2023-08-06T20:52:15;2.10;;;1.03;;
26034;SDS011;13809;48.632;11.576;2023-08-06T20:57:18;0.70;;;0.70;;
26034;SDS011;13809;48.632;11.576;2023-08-06T21:02:21;1.23;;;0.97;;
26034;SDS011;13809;48.632;11.576;2023-08-06T21:07:28;1.30;;;1.00;;
26034;SDS011;13809;48.632;11.576;2023-08-06T21:12:31;1.30;;;0.90;;
26034;SDS011;13809;48.632;11.576;2023-08-06T21:17:34;1.03;;;0.93;;
26034;SDS011;13809;48.632;11.576;2023-08-06T21:22:39;1.03;;;1.03;;
26034;SDS011;13809;48.632;11.576;2023-08-06T21:27:42;0.90;;;0.90;;
26034;SDS011;13809;48.632;11.576;2023-08-06T21:32:49;1.83;;;1.10;;
26034;SDS011;13809;48.632;11.576;2023-08-06T21:37:53;1.20;;;1.10;;
26034;SDS011;13809;48.632;11.576;2023-08-06T21:42:56;1.17;;;1.00;;
26034;SDS011;13809;48.632;11.576;2023-08-06T21:47:59;1.20;;;1.10;;
26034;SDS011;13809;48.632;11.576;2023-08-06T21:53:04;1.10;;;1.10;;
26034;SDS011;13809;48.632;11.576;2023-08-06T21:58:07;2.30;;;1.20;;
26034;SDS011;13809;48.632;11.576;2023-08-06T22:03:10;1.97;;;1.30;;
26034;SDS011;13809;48.632;11.576;2023-08-06T22:08:15;2.00;;;1.30;;
26034;SDS011;13809;48.632;11.576;2023-08-06T22:13:18;1.20;;;1.10;;
26034;SDS011;13809;48.632;11.576;2023-08-06T22:18:22;1.10;;;1.00;;
26034;SDS011;13809;48.632;11.576;2023-08-06T22:23:26;1.40;;;1.30;;
26034;SDS011;13809;48.632;11.576;2023-08-06T22:28:30;1.10;;;1.10;;
26034;SDS011;13809;48.632;11.576;2023-08-06T22:33:33;1.40;;;1.30;;
26034;SDS011;13809;48.632;11.576;2023-08-06T22:38:38;1.40;;;1.30;;
26034;SDS011;13809;48.632;11.576;2023-08-06T22:43:41;1.67;;;1.20;;
26034;SDS011;13809;48.632;11.576;2023-08-06T22:48:44;1.53;;;1.20;;
26034;SDS011;13809;48.632;11.576;2023-08-06T22:53:49;1.30;;;1.20;;
26034;SDS011;13809;48.632;11.576;2023-08-06T22:58:52;2.53;;;1.30;;
26034;SDS011;13809;48.632;11.576;2023-08-06T23:03:56;0.90;;;0.90;;
26034;SDS011;13809;48.632;11.576;2023-08-06T23:09:01;1.30;;;1.20;;
26034;SDS011;13809;48.632;11.576;2023-08-06T23:14:04;1.13;;;1.10;;
26034;SDS011;13809;48.632;11.576;2023-08-06T23:19:07;1.30;;;1.20;;
26034;SDS011;13809;48.632;11.576;2023-08-06T23:24:12;1.30;;;1.20;;
26034;SDS011;13809;48.632;11.576;2023-08-06T23:29:15;1.80;;;1.17;;
26034;SDS011;13809;48.632;11.576;2023-08-06T23:34:18;1.77;;;1.30;;
26034;SDS011;13809;48.632;11.576;2023-08-06T23:39:23;1.00;;;1.00;;
26034;SDS011;13809;48.632;11.576;2023-08-06T23:44:26;1.20;;;1.20;;
26034;SDS011;13809;48.632;11.576;2023-08-06T23:49:29;0.97;;;0.97;;
26034;SDS011;13809;48.632;11.576;2023-08-06T23:54:34;1.23;;;1.10;;
26034;SDS011;13809;48.632;11.576;2023-08-06T23:59:38;1.20;;;1.10;;
